Spokane International Airport
KGEG : now visible

Airfield :











YOU CAN JOIN US ON...

 
LOGIN :

Register | Disclaimer

   EN    FR    IT 

 









Legend :    VFR   Marginal VFR   IFR   Intensive IFR   Very Intensive IFR
Visi :
Ceiling :
>= 8 km
>= 3000ft
5 to 8 km
1000 to 3000 ft
1500m to 5 km
500 to 1000 ft
800 to 1500m
200 to 500 ft
< 800m
< 200 ft
Symbols :   Thunderstorms  Fog  Heavy snow  Heavy precipitations  Wind > 20 kt






- Airport Elevation : 2376 ft
- IATA code : GEG


KGEG - Spokane International

CURRENT METAR :
  • 141953Z 22006KT 8SM SCT007 OVC009 00/M02 A2993 RMK AO2 SNB19E31B48E51 SLP154 VCSH P0000 T00001017

EXPIRED METARs :
  • 141926Z 20005KT 8SM -SN SCT006 OVC009 00/M02 A2993 RMK AO2 SNB19 P0000 T00001017
  • 141853Z 26003KT 10SM SCT007 OVC010 00/M02 A2993 RMK AO2 SLP156 T00001022
  • 141753Z 30005KT 10SM FEW007 OVC013 00/M02 A2994 RMK AO2 SNB06E12 SLP158 P0000 60000 T00001022 10000 20000 53010

TAF KGEG
Valid from the 14 at 18:00 until the 15 at 18:00 UTC


141740Z 1418/1518 23003KT P6SM OVC014
FM150500 24003KT P6SM OVC008
FM151000 25004KT 4SM BR OVC005
FM151500 27004KT 1 1/2SM BR OVC003



MET'MAP, your aeronautical weather chart ! - Copyright ORBIFLY December 2007 - Disclaimer

ORBIFLY MET'MAP TEAM :

Programming & Development : Alexandra Zaïnal
Concept & original design : Baudouin d'Aumeries
Assistance for programming : Marc-Olivier Méhu
Technical & hardware support : Manuel Goepfert

Contact : metmap@orbifly.com




SOURCES & CREDITS :

   NOAA       Earth
Advisory